sensor_id;sensor_type;location;lat;lon;timestamp;P1;durP1;ratioP1;P2;durP2;ratioP2
34657;SDS011;20865;43.312;27.152;2022-08-05T00:01:50;12.23;;;8.03;;
34657;SDS011;20865;43.312;27.152;2022-08-05T00:04:18;9.30;;;7.47;;
34657;SDS011;20865;43.312;27.152;2022-08-05T00:06:46;12.45;;;8.05;;
34657;SDS011;20865;43.312;27.152;2022-08-05T00:09:13;14.38;;;7.92;;
34657;SDS011;20865;43.312;27.152;2022-08-05T00:11:41;15.28;;;8.15;;
34657;SDS011;20865;43.312;27.152;2022-08-05T00:14:09;13.08;;;8.55;;
34657;SDS011;20865;43.312;27.152;2022-08-05T00:16:36;9.68;;;7.25;;
34657;SDS011;20865;43.312;27.152;2022-08-05T00:19:04;9.75;;;7.75;;
34657;SDS011;20865;43.312;27.152;2022-08-05T00:21:32;11.38;;;8.13;;
34657;SDS011;20865;43.312;27.152;2022-08-05T00:23:59;13.53;;;7.85;;
34657;SDS011;20865;43.312;27.152;2022-08-05T00:26:27;11.53;;;8.43;;
34657;SDS011;20865;43.312;27.152;2022-08-05T00:28:55;13.35;;;7.83;;
34657;SDS011;20865;43.312;27.152;2022-08-05T00:31:23;10.82;;;7.95;;
34657;SDS011;20865;43.312;27.152;2022-08-05T00:33:50;11.80;;;7.87;;
34657;SDS011;20865;43.312;27.152;2022-08-05T00:36:18;10.85;;;7.83;;
34657;SDS011;20865;43.312;27.152;2022-08-05T00:38:47;13.90;;;8.63;;
34657;SDS011;20865;43.312;27.152;2022-08-05T00:41:25;15.60;;;8.13;;
34657;SDS011;20865;43.312;27.152;2022-08-05T00:43:57;12.68;;;8.45;;
34657;SDS011;20865;43.312;27.152;2022-08-05T00:46:25;12.30;;;8.65;;
34657;SDS011;20865;43.312;27.152;2022-08-05T00:48:53;14.18;;;8.28;;
34657;SDS011;20865;43.312;27.152;2022-08-05T00:51:21;11.35;;;8.48;;
34657;SDS011;20865;43.312;27.152;2022-08-05T00:53:49;12.53;;;7.90;;
34657;SDS011;20865;43.312;27.152;2022-08-05T00:56:16;12.53;;;8.55;;
34657;SDS011;20865;43.312;27.152;2022-08-05T00:58:44;11.28;;;9.08;;
34657;SDS011;20865;43.312;27.152;2022-08-05T01:01:12;11.33;;;8.63;;
34657;SDS011;20865;43.312;27.152;2022-08-05T01:03:41;12.07;;;8.90;;
34657;SDS011;20865;43.312;27.152;2022-08-05T01:06:09;11.57;;;9.38;;
34657;SDS011;20865;43.312;27.152;2022-08-05T01:08:38;16.93;;;8.73;;
34657;SDS011;20865;43.312;27.152;2022-08-05T01:13:46;14.65;;;9.10;;
34657;SDS011;20865;43.312;27.152;2022-08-05T01:16:32;15.58;;;8.70;;
34657;SDS011;20865;43.312;27.152;2022-08-05T01:19:00;17.25;;;8.85;;
34657;SDS011;20865;43.312;27.152;2022-08-05T01:21:36;13.22;;;8.93;;
34657;SDS011;20865;43.312;27.152;2022-08-05T01:27:24;15.40;;;8.45;;
34657;SDS011;20865;43.312;27.152;2022-08-05T01:30:06;13.00;;;8.45;;
34657;SDS011;20865;43.312;27.152;2022-08-05T01:32:34;11.20;;;7.70;;
34657;SDS011;20865;43.312;27.152;2022-08-05T01:35:05;14.53;;;8.15;;
34657;SDS011;20865;43.312;27.152;2022-08-05T01:37:52;13.90;;;8.40;;
34657;SDS011;20865;43.312;27.152;2022-08-05T01:40:17;11.60;;;7.85;;
34657;SDS011;20865;43.312;27.152;2022-08-05T01:42:47;12.45;;;8.58;;
34657;SDS011;20865;43.312;27.152;2022-08-05T01:45:17;12.58;;;9.23;;
34657;SDS011;20865;43.312;27.152;2022-08-05T01:47:48;13.30;;;8.58;;
34657;SDS011;20865;43.312;27.152;2022-08-05T01:50:23;14.58;;;9.23;;
34657;SDS011;20865;43.312;27.152;2022-08-05T01:52:47;17.62;;;9.15;;
34657;SDS011;20865;43.312;27.152;2022-08-05T01:55:19;13.75;;;9.33;;
34657;SDS011;20865;43.312;27.152;2022-08-05T01:57:48;20.80;;;8.98;;
34657;SDS011;20865;43.312;27.152;2022-08-05T02:00:18;14.07;;;8.28;;
34657;SDS011;20865;43.312;27.152;2022-08-05T02:02:54;13.65;;;8.03;;
34657;SDS011;20865;43.312;27.152;2022-08-05T02:07:51;11.57;;;8.15;;
34657;SDS011;20865;43.312;27.152;2022-08-05T02:10:19;13.80;;;8.60;;
34657;SDS011;20865;43.312;27.152;2022-08-05T02:13:07;15.32;;;8.88;;
34657;SDS011;20865;43.312;27.152;2022-08-05T02:15:35;12.03;;;8.00;;
34657;SDS011;20865;43.312;27.152;2022-08-05T02:20:53;12.40;;;7.62;;
34657;SDS011;20865;43.312;27.152;2022-08-05T02:23:27;13.75;;;7.50;;
34657;SDS011;20865;43.312;27.152;2022-08-05T02:25:55;10.13;;;8.05;;
34657;SDS011;20865;43.312;27.152;2022-08-05T02:28:27;13.72;;;7.65;;
34657;SDS011;20865;43.312;27.152;2022-08-05T02:31:00;16.95;;;7.80;;
34657;SDS011;20865;43.312;27.152;2022-08-05T02:33:31;10.93;;;8.08;;
34657;SDS011;20865;43.312;27.152;2022-08-05T02:36:00;13.55;;;8.18;;
34657;SDS011;20865;43.312;27.152;2022-08-05T02:38:30;18.27;;;8.23;;
34657;SDS011;20865;43.312;27.152;2022-08-05T02:40:59;16.12;;;7.55;;
34657;SDS011;20865;43.312;27.152;2022-08-05T02:43:28;11.25;;;7.95;;
34657;SDS011;20865;43.312;27.152;2022-08-05T02:45:58;11.38;;;8.15;;
34657;SDS011;20865;43.312;27.152;2022-08-05T02:48:27;10.63;;;7.65;;
34657;SDS011;20865;43.312;27.152;2022-08-05T02:50:58;10.90;;;7.83;;
34657;SDS011;20865;43.312;27.152;2022-08-05T02:53:28;10.60;;;8.28;;
34657;SDS011;20865;43.312;27.152;2022-08-05T02:55:57;13.05;;;8.08;;
34657;SDS011;20865;43.312;27.152;2022-08-05T02:58:26;12.20;;;7.37;;
34657;SDS011;20865;43.312;27.152;2022-08-05T03:00:55;10.30;;;7.95;;
34657;SDS011;20865;43.312;27.152;2022-08-05T03:03:24;10.55;;;7.67;;
34657;SDS011;20865;43.312;27.152;2022-08-05T03:05:54;17.55;;;8.40;;
34657;SDS011;20865;43.312;27.152;2022-08-05T03:08:22;13.10;;;8.00;;
34657;SDS011;20865;43.312;27.152;2022-08-05T03:10:50;19.27;;;8.33;;
34657;SDS011;20865;43.312;27.152;2022-08-05T03:13:18;11.18;;;8.50;;
34657;SDS011;20865;43.312;27.152;2022-08-05T03:15:46;11.63;;;8.45;;
34657;SDS011;20865;43.312;27.152;2022-08-05T03:18:14;13.62;;;9.00;;
34657;SDS011;20865;43.312;27.152;2022-08-05T03:20:42;11.38;;;8.78;;
34657;SDS011;20865;43.312;27.152;2022-08-05T03:23:09;13.88;;;9.23;;
34657;SDS011;20865;43.312;27.152;2022-08-05T03:25:38;14.35;;;8.40;;
34657;SDS011;20865;43.312;27.152;2022-08-05T03:28:07;19.15;;;8.43;;
34657;SDS011;20865;43.312;27.152;2022-08-05T03:30:36;13.28;;;9.30;;
34657;SDS011;20865;43.312;27.152;2022-08-05T03:33:04;16.87;;;8.33;;
34657;SDS011;20865;43.312;27.152;2022-08-05T03:35:32;11.28;;;8.65;;
34657;SDS011;20865;43.312;27.152;2022-08-05T03:38:00;12.13;;;8.25;;
34657;SDS011;20865;43.312;27.152;2022-08-05T03:40:28;11.30;;;8.85;;
34657;SDS011;20865;43.312;27.152;2022-08-05T03:42:56;17.62;;;9.93;;
34657;SDS011;20865;43.312;27.152;2022-08-05T03:45:24;17.45;;;9.78;;
34657;SDS011;20865;43.312;27.152;2022-08-05T03:47:51;15.55;;;9.55;;
34657;SDS011;20865;43.312;27.152;2022-08-05T03:50:19;14.18;;;8.63;;
34657;SDS011;20865;43.312;27.152;2022-08-05T03:52:51;16.57;;;8.83;;
34657;SDS011;20865;43.312;27.152;2022-08-05T03:55:36;12.57;;;8.93;;
34657;SDS011;20865;43.312;27.152;2022-08-05T03:57:53;11.63;;;8.95;;
34657;SDS011;20865;43.312;27.152;2022-08-05T04:00:22;11.57;;;9.30;;
34657;SDS011;20865;43.312;27.152;2022-08-05T04:02:52;16.73;;;9.15;;
34657;SDS011;20865;43.312;27.152;2022-08-05T04:05:22;14.30;;;8.93;;
34657;SDS011;20865;43.312;27.152;2022-08-05T04:07:51;16.35;;;9.58;;
34657;SDS011;20865;43.312;27.152;2022-08-05T04:10:19;15.48;;;9.18;;
34657;SDS011;20865;43.312;27.152;2022-08-05T04:12:47;15.75;;;8.68;;
34657;SDS011;20865;43.312;27.152;2022-08-05T04:15:15;11.33;;;8.48;;
34657;SDS011;20865;43.312;27.152;2022-08-05T04:17:43;12.50;;;9.53;;
34657;SDS011;20865;43.312;27.152;2022-08-05T04:20:18;14.47;;;9.68;;
34657;SDS011;20865;43.312;27.152;2022-08-05T04:22:47;11.13;;;8.10;;
34657;SDS011;20865;43.312;27.152;2022-08-05T04:25:14;11.05;;;8.30;;
34657;SDS011;20865;43.312;27.152;2022-08-05T04:27:42;18.07;;;8.83;;
34657;SDS011;20865;43.312;27.152;2022-08-05T04:30:10;12.78;;;8.45;;
34657;SDS011;20865;43.312;27.152;2022-08-05T04:32:39;13.98;;;7.65;;
34657;SDS011;20865;43.312;27.152;2022-08-05T04:35:07;13.08;;;7.58;;
34657;SDS011;20865;43.312;27.152;2022-08-05T04:37:35;18.87;;;7.97;;
34657;SDS011;20865;43.312;27.152;2022-08-05T04:40:03;15.65;;;8.25;;
34657;SDS011;20865;43.312;27.152;2022-08-05T04:42:31;13.72;;;7.92;;
34657;SDS011;20865;43.312;27.152;2022-08-05T04:44:59;11.28;;;7.40;;
34657;SDS011;20865;43.312;27.152;2022-08-05T04:47:26;10.38;;;7.83;;
34657;SDS011;20865;43.312;27.152;2022-08-05T04:49:54;12.68;;;8.83;;
34657;SDS011;20865;43.312;27.152;2022-08-05T04:52:22;15.50;;;8.05;;
34657;SDS011;20865;43.312;27.152;2022-08-05T04:54:50;16.70;;;7.15;;
34657;SDS011;20865;43.312;27.152;2022-08-05T04:57:18;14.73;;;7.00;;
34657;SDS011;20865;43.312;27.152;2022-08-05T04:59:45;17.17;;;6.83;;
34657;SDS011;20865;43.312;27.152;2022-08-05T05:02:13;14.18;;;6.40;;
34657;SDS011;20865;43.312;27.152;2022-08-05T05:04:41;9.53;;;6.10;;
34657;SDS011;20865;43.312;27.152;2022-08-05T05:07:08;13.25;;;6.00;;
34657;SDS011;20865;43.312;27.152;2022-08-05T05:09:36;11.83;;;5.80;;
34657;SDS011;20865;43.312;27.152;2022-08-05T05:12:04;8.85;;;6.62;;
34657;SDS011;20865;43.312;27.152;2022-08-05T05:14:32;13.08;;;5.67;;
34657;SDS011;20865;43.312;27.152;2022-08-05T05:17:00;15.95;;;6.35;;
34657;SDS011;20865;43.312;27.152;2022-08-05T05:19:29;11.45;;;6.58;;
34657;SDS011;20865;43.312;27.152;2022-08-05T05:21:58;10.38;;;5.85;;
34657;SDS011;20865;43.312;27.152;2022-08-05T05:24:26;8.88;;;6.28;;
34657;SDS011;20865;43.312;27.152;2022-08-05T05:26:53;10.40;;;6.03;;
34657;SDS011;20865;43.312;27.152;2022-08-05T05:29:21;9.18;;;5.72;;
34657;SDS011;20865;43.312;27.152;2022-08-05T05:31:49;7.20;;;5.67;;
34657;SDS011;20865;43.312;27.152;2022-08-05T05:34:16;8.43;;;4.97;;
34657;SDS011;20865;43.312;27.152;2022-08-05T05:36:44;10.90;;;5.20;;
34657;SDS011;20865;43.312;27.152;2022-08-05T05:39:11;9.25;;;5.92;;
34657;SDS011;20865;43.312;27.152;2022-08-05T05:41:39;8.40;;;5.72;;
34657;SDS011;20865;43.312;27.152;2022-08-05T05:44:06;51.77;;;6.17;;
34657;SDS011;20865;43.312;27.152;2022-08-05T05:46:34;14.23;;;5.53;;
34657;SDS011;20865;43.312;27.152;2022-08-05T05:49:02;25.37;;;5.62;;
34657;SDS011;20865;43.312;27.152;2022-08-05T05:51:29;15.72;;;5.50;;
34657;SDS011;20865;43.312;27.152;2022-08-05T05:53:57;12.30;;;5.40;;
34657;SDS011;20865;43.312;27.152;2022-08-05T05:56:25;12.50;;;4.80;;
34657;SDS011;20865;43.312;27.152;2022-08-05T05:58:54;10.78;;;4.53;;
34657;SDS011;20865;43.312;27.152;2022-08-05T06:01:22;16.10;;;5.37;;
34657;SDS011;20865;43.312;27.152;2022-08-05T06:03:49;13.48;;;5.12;;
34657;SDS011;20865;43.312;27.152;2022-08-05T06:06:17;11.40;;;5.33;;
34657;SDS011;20865;43.312;27.152;2022-08-05T06:08:44;12.00;;;5.12;;
34657;SDS011;20865;43.312;27.152;2022-08-05T06:11:12;9.70;;;5.28;;
34657;SDS011;20865;43.312;27.152;2022-08-05T06:13:40;9.93;;;4.90;;
34657;SDS011;20865;43.312;27.152;2022-08-05T06:16:07;8.25;;;5.08;;
34657;SDS011;20865;43.312;27.152;2022-08-05T06:18:37;17.82;;;5.40;;
34657;SDS011;20865;43.312;27.152;2022-08-05T06:21:04;10.25;;;4.67;;
34657;SDS011;20865;43.312;27.152;2022-08-05T06:23:32;9.75;;;4.90;;
34657;SDS011;20865;43.312;27.152;2022-08-05T06:26:00;28.00;;;5.62;;
34657;SDS011;20865;43.312;27.152;2022-08-05T06:28:27;6.28;;;4.85;;
34657;SDS011;20865;43.312;27.152;2022-08-05T06:30:55;10.20;;;4.95;;
34657;SDS011;20865;43.312;27.152;2022-08-05T06:33:22;10.63;;;5.17;;
34657;SDS011;20865;43.312;27.152;2022-08-05T06:35:50;10.18;;;4.85;;
34657;SDS011;20865;43.312;27.152;2022-08-05T06:38:18;11.38;;;4.70;;
34657;SDS011;20865;43.312;27.152;2022-08-05T06:40:45;11.15;;;4.50;;
34657;SDS011;20865;43.312;27.152;2022-08-05T06:43:13;9.53;;;4.83;;
34657;SDS011;20865;43.312;27.152;2022-08-05T06:45:41;110.48;;;8.60;;
34657;SDS011;20865;43.312;27.152;2022-08-05T06:48:09;10.03;;;4.87;;
34657;SDS011;20865;43.312;27.152;2022-08-05T06:50:37;8.80;;;5.25;;
34657;SDS011;20865;43.312;27.152;2022-08-05T06:53:05;17.02;;;5.62;;
34657;SDS011;20865;43.312;27.152;2022-08-05T06:55:32;9.33;;;4.70;;
34657;SDS011;20865;43.312;27.152;2022-08-05T06:58:00;13.08;;;4.90;;
34657;SDS011;20865;43.312;27.152;2022-08-05T07:00:27;12.63;;;5.12;;
34657;SDS011;20865;43.312;27.152;2022-08-05T07:02:56;10.30;;;4.53;;
34657;SDS011;20865;43.312;27.152;2022-08-05T07:05:24;50.52;;;6.45;;
34657;SDS011;20865;43.312;27.152;2022-08-05T07:07:53;17.90;;;5.75;;
34657;SDS011;20865;43.312;27.152;2022-08-05T07:10:21;40.52;;;6.45;;
34657;SDS011;20865;43.312;27.152;2022-08-05T07:12:50;11.57;;;5.12;;
34657;SDS011;20865;43.312;27.152;2022-08-05T07:15:35;13.10;;;5.22;;
34657;SDS011;20865;43.312;27.152;2022-08-05T07:18:21;19.73;;;5.60;;
34657;SDS011;20865;43.312;27.152;2022-08-05T07:20:49;14.70;;;5.10;;
34657;SDS011;20865;43.312;27.152;2022-08-05T07:23:16;10.75;;;5.25;;
34657;SDS011;20865;43.312;27.152;2022-08-05T07:25:44;7.20;;;4.42;;
34657;SDS011;20865;43.312;27.152;2022-08-05T07:28:11;9.45;;;4.80;;
34657;SDS011;20865;43.312;27.152;2022-08-05T07:30:39;8.90;;;4.75;;
34657;SDS011;20865;43.312;27.152;2022-08-05T07:33:08;44.85;;;5.75;;
34657;SDS011;20865;43.312;27.152;2022-08-05T07:35:37;11.73;;;5.25;;
34657;SDS011;20865;43.312;27.152;2022-08-05T07:38:05;8.85;;;4.67;;
34657;SDS011;20865;43.312;27.152;2022-08-05T07:40:33;13.72;;;5.60;;
34657;SDS011;20865;43.312;27.152;2022-08-05T07:43:01;11.20;;;5.10;;
34657;SDS011;20865;43.312;27.152;2022-08-05T07:45:28;6.75;;;4.87;;
34657;SDS011;20865;43.312;27.152;2022-08-05T07:47:56;10.78;;;4.78;;
34657;SDS011;20865;43.312;27.152;2022-08-05T07:50:24;16.75;;;5.37;;
34657;SDS011;20865;43.312;27.152;2022-08-05T07:52:52;8.70;;;5.08;;
34657;SDS011;20865;43.312;27.152;2022-08-05T07:55:19;30.43;;;6.28;;
34657;SDS011;20865;43.312;27.152;2022-08-05T07:57:47;7.87;;;5.53;;
34657;SDS011;20865;43.312;27.152;2022-08-05T08:00:15;12.85;;;5.37;;
34657;SDS011;20865;43.312;27.152;2022-08-05T08:02:43;8.35;;;4.62;;
34657;SDS011;20865;43.312;27.152;2022-08-05T08:05:11;10.18;;;5.70;;
34657;SDS011;20865;43.312;27.152;2022-08-05T08:07:38;12.55;;;4.72;;
34657;SDS011;20865;43.312;27.152;2022-08-05T08:10:06;10.70;;;5.75;;
34657;SDS011;20865;43.312;27.152;2022-08-05T08:12:34;13.18;;;5.47;;
34657;SDS011;20865;43.312;27.152;2022-08-05T08:15:02;7.72;;;4.87;;
34657;SDS011;20865;43.312;27.152;2022-08-05T08:17:30;14.60;;;5.00;;
34657;SDS011;20865;43.312;27.152;2022-08-05T08:19:58;8.35;;;4.37;;
34657;SDS011;20865;43.312;27.152;2022-08-05T08:22:28;9.13;;;4.72;;
34657;SDS011;20865;43.312;27.152;2022-08-05T08:24:56;10.18;;;4.37;;
34657;SDS011;20865;43.312;27.152;2022-08-05T08:27:23;9.85;;;4.85;;
34657;SDS011;20865;43.312;27.152;2022-08-05T08:29:51;8.60;;;4.17;;
34657;SDS011;20865;43.312;27.152;2022-08-05T08:32:18;8.83;;;4.35;;
34657;SDS011;20865;43.312;27.152;2022-08-05T08:34:46;10.08;;;4.58;;
34657;SDS011;20865;43.312;27.152;2022-08-05T08:37:14;16.20;;;4.42;;
34657;SDS011;20865;43.312;27.152;2022-08-05T08:39:43;23.62;;;5.28;;
34657;SDS011;20865;43.312;27.152;2022-08-05T08:42:11;14.23;;;4.67;;
34657;SDS011;20865;43.312;27.152;2022-08-05T08:44:40;11.28;;;4.40;;
34657;SDS011;20865;43.312;27.152;2022-08-05T08:47:10;7.75;;;4.42;;
34657;SDS011;20865;43.312;27.152;2022-08-05T08:49:38;6.83;;;4.00;;
34657;SDS011;20865;43.312;27.152;2022-08-05T08:52:12;4.92;;;3.70;;
34657;SDS011;20865;43.312;27.152;2022-08-05T08:54:44;6.47;;;4.17;;
34657;SDS011;20865;43.312;27.152;2022-08-05T08:57:12;10.13;;;4.00;;
34657;SDS011;20865;43.312;27.152;2022-08-05T08:59:40;13.15;;;4.95;;
34657;SDS011;20865;43.312;27.152;2022-08-05T09:02:09;14.23;;;4.10;;
34657;SDS011;20865;43.312;27.152;2022-08-05T09:04:39;9.33;;;3.80;;
34657;SDS011;20865;43.312;27.152;2022-08-05T09:07:06;5.75;;;4.10;;
34657;SDS011;20865;43.312;27.152;2022-08-05T09:09:34;13.90;;;4.28;;
34657;SDS011;20865;43.312;27.152;2022-08-05T09:12:03;136.85;;;10.82;;
34657;SDS011;20865;43.312;27.152;2022-08-05T09:14:33;12.37;;;3.85;;
34657;SDS011;20865;43.312;27.152;2022-08-05T09:17:03;9.40;;;4.30;;
34657;SDS011;20865;43.312;27.152;2022-08-05T09:19:32;7.12;;;3.90;;
34657;SDS011;20865;43.312;27.152;2022-08-05T09:21:59;4.30;;;3.90;;
34657;SDS011;20865;43.312;27.152;2022-08-05T09:24:28;9.23;;;4.42;;
34657;SDS011;20865;43.312;27.152;2022-08-05T09:26:56;6.10;;;4.00;;
34657;SDS011;20865;43.312;27.152;2022-08-05T09:29:36;8.03;;;4.47;;
34657;SDS011;20865;43.312;27.152;2022-08-05T09:32:08;9.03;;;4.25;;
34657;SDS011;20865;43.312;27.152;2022-08-05T09:34:46;6.62;;;4.78;;
34657;SDS011;20865;43.312;27.152;2022-08-05T09:37:24;16.82;;;4.72;;
34657;SDS011;20865;43.312;27.152;2022-08-05T09:39:54;6.60;;;4.08;;
34657;SDS011;20865;43.312;27.152;2022-08-05T09:42:21;8.80;;;4.35;;
34657;SDS011;20865;43.312;27.152;2022-08-05T09:44:51;7.95;;;4.35;;
34657;SDS011;20865;43.312;27.152;2022-08-05T09:47:22;13.83;;;4.78;;
34657;SDS011;20865;43.312;27.152;2022-08-05T09:49:53;9.25;;;4.97;;
34657;SDS011;20865;43.312;27.152;2022-08-05T09:52:29;8.68;;;4.30;;
34657;SDS011;20865;43.312;27.152;2022-08-05T09:57:38;7.75;;;4.97;;
34657;SDS011;20865;43.312;27.152;2022-08-05T10:02:48;13.43;;;5.12;;
34657;SDS011;20865;43.312;27.152;2022-08-05T10:05:19;7.30;;;4.28;;
34657;SDS011;20865;43.312;27.152;2022-08-05T10:10:20;11.35;;;4.55;;
34657;SDS011;20865;43.312;27.152;2022-08-05T10:12:51;9.18;;;4.90;;
34657;SDS011;20865;43.312;27.152;2022-08-05T10:15:21;16.85;;;4.50;;
34657;SDS011;20865;43.312;27.152;2022-08-05T10:18:01;8.33;;;4.10;;
34657;SDS011;20865;43.312;27.152;2022-08-05T10:20:35;6.72;;;3.87;;
34657;SDS011;20865;43.312;27.152;2022-08-05T10:23:04;9.93;;;4.95;;
34657;SDS011;20865;43.312;27.152;2022-08-05T10:25:32;10.65;;;4.55;;
34657;SDS011;20865;43.312;27.152;2022-08-05T10:28:00;7.45;;;4.05;;
34657;SDS011;20865;43.312;27.152;2022-08-05T10:30:28;10.30;;;4.58;;
34657;SDS011;20865;43.312;27.152;2022-08-05T10:32:56;15.98;;;5.92;;
34657;SDS011;20865;43.312;27.152;2022-08-05T10:35:24;9.53;;;4.50;;
34657;SDS011;20865;43.312;27.152;2022-08-05T10:37:52;11.00;;;5.33;;
34657;SDS011;20865;43.312;27.152;2022-08-05T10:40:32;6.53;;;4.62;;
34657;SDS011;20865;43.312;27.152;2022-08-05T10:42:51;10.98;;;5.25;;
34657;SDS011;20865;43.312;27.152;2022-08-05T10:45:25;9.18;;;4.80;;
34657;SDS011;20865;43.312;27.152;2022-08-05T10:47:55;10.32;;;3.67;;
34657;SDS011;20865;43.312;27.152;2022-08-05T10:50:22;8.68;;;3.33;;
34657;SDS011;20865;43.312;27.152;2022-08-05T10:52:50;18.23;;;4.10;;
34657;SDS011;20865;43.312;27.152;2022-08-05T10:55:25;6.25;;;3.72;;
34657;SDS011;20865;43.312;27.152;2022-08-05T10:58:10;5.90;;;3.90;;
34657;SDS011;20865;43.312;27.152;2022-08-05T11:00:39;33.42;;;4.75;;
34657;SDS011;20865;43.312;27.152;2022-08-05T11:03:09;5.53;;;4.00;;
34657;SDS011;20865;43.312;27.152;2022-08-05T11:05:39;5.42;;;3.50;;
34657;SDS011;20865;43.312;27.152;2022-08-05T11:08:08;7.00;;;3.67;;
34657;SDS011;20865;43.312;27.152;2022-08-05T11:10:36;8.90;;;4.25;;
34657;SDS011;20865;43.312;27.152;2022-08-05T11:13:06;27.60;;;4.83;;
34657;SDS011;20865;43.312;27.152;2022-08-05T11:15:37;12.60;;;4.30;;
34657;SDS011;20865;43.312;27.152;2022-08-05T11:18:22;12.85;;;4.05;;
34657;SDS011;20865;43.312;27.152;2022-08-05T11:20:43;13.05;;;3.90;;
34657;SDS011;20865;43.312;27.152;2022-08-05T11:23:28;11.08;;;3.92;;
34657;SDS011;20865;43.312;27.152;2022-08-05T11:26:04;5.12;;;3.72;;
34657;SDS011;20865;43.312;27.152;2022-08-05T11:33:35;8.13;;;4.35;;
34657;SDS011;20865;43.312;27.152;2022-08-05T11:36:07;10.32;;;4.00;;
34657;SDS011;20865;43.312;27.152;2022-08-05T11:41:17;6.40;;;3.90;;
34657;SDS011;20865;43.312;27.152;2022-08-05T11:43:59;5.55;;;3.65;;
34657;SDS011;20865;43.312;27.152;2022-08-05T11:46:32;5.75;;;3.80;;
34657;SDS011;20865;43.312;27.152;2022-08-05T11:49:05;16.62;;;4.60;;
34657;SDS011;20865;43.312;27.152;2022-08-05T11:51:35;37.10;;;5.30;;
34657;SDS011;20865;43.312;27.152;2022-08-05T11:54:02;6.47;;;3.75;;
34657;SDS011;20865;43.312;27.152;2022-08-05T11:56:48;6.33;;;3.85;;
34657;SDS011;20865;43.312;27.152;2022-08-05T11:59:23;13.10;;;4.03;;
34657;SDS011;20865;43.312;27.152;2022-08-05T12:01:59;7.03;;;4.08;;
34657;SDS011;20865;43.312;27.152;2022-08-05T12:04:37;13.28;;;4.60;;
34657;SDS011;20865;43.312;27.152;2022-08-05T12:07:07;7.55;;;3.80;;
34657;SDS011;20865;43.312;27.152;2022-08-05T12:09:36;6.42;;;3.62;;
34657;SDS011;20865;43.312;27.152;2022-08-05T12:12:06;5.92;;;3.62;;
34657;SDS011;20865;43.312;27.152;2022-08-05T12:14:35;19.60;;;4.83;;
34657;SDS011;20865;43.312;27.152;2022-08-05T12:17:13;12.78;;;4.22;;
34657;SDS011;20865;43.312;27.152;2022-08-05T12:19:41;10.08;;;4.25;;
34657;SDS011;20865;43.312;27.152;2022-08-05T12:22:11;6.33;;;4.62;;
34657;SDS011;20865;43.312;27.152;2022-08-05T12:24:41;4.80;;;3.80;;
34657;SDS011;20865;43.312;27.152;2022-08-05T12:27:18;6.12;;;3.72;;
34657;SDS011;20865;43.312;27.152;2022-08-05T12:32:50;7.17;;;3.40;;
34657;SDS011;20865;43.312;27.152;2022-08-05T12:35:18;9.83;;;3.75;;
34657;SDS011;20865;43.312;27.152;2022-08-05T12:37:49;8.50;;;3.95;;
34657;SDS011;20865;43.312;27.152;2022-08-05T12:40:17;7.92;;;3.98;;
34657;SDS011;20865;43.312;27.152;2022-08-05T12:42:47;8.33;;;4.10;;
34657;SDS011;20865;43.312;27.152;2022-08-05T12:45:14;6.05;;;3.55;;
34657;SDS011;20865;43.312;27.152;2022-08-05T12:47:43;7.67;;;3.27;;
34657;SDS011;20865;43.312;27.152;2022-08-05T12:50:14;15.85;;;4.28;;
34657;SDS011;20865;43.312;27.152;2022-08-05T12:52:54;11.00;;;3.90;;
34657;SDS011;20865;43.312;27.152;2022-08-05T12:55:24;16.95;;;4.17;;
34657;SDS011;20865;43.312;27.152;2022-08-05T12:57:54;14.23;;;3.60;;
34657;SDS011;20865;43.312;27.152;2022-08-05T13:00:24;6.70;;;3.60;;
34657;SDS011;20865;43.312;27.152;2022-08-05T13:02:54;7.67;;;3.70;;
34657;SDS011;20865;43.312;27.152;2022-08-05T13:05:22;5.28;;;3.42;;
34657;SDS011;20865;43.312;27.152;2022-08-05T13:07:52;8.55;;;3.98;;
34657;SDS011;20865;43.312;27.152;2022-08-05T13:10:22;16.25;;;3.40;;
34657;SDS011;20865;43.312;27.152;2022-08-05T13:12:49;60.10;;;5.62;;
34657;SDS011;20865;43.312;27.152;2022-08-05T13:15:19;5.30;;;3.12;;
34657;SDS011;20865;43.312;27.152;2022-08-05T13:17:53;4.97;;;3.30;;
34657;SDS011;20865;43.312;27.152;2022-08-05T13:20:21;6.25;;;3.37;;
34657;SDS011;20865;43.312;27.152;2022-08-05T13:22:49;7.37;;;2.85;;
34657;SDS011;20865;43.312;27.152;2022-08-05T13:25:19;8.18;;;3.37;;
34657;SDS011;20865;43.312;27.152;2022-08-05T13:27:48;5.45;;;3.40;;
34657;SDS011;20865;43.312;27.152;2022-08-05T13:30:17;10.38;;;3.62;;
34657;SDS011;20865;43.312;27.152;2022-08-05T13:32:48;9.25;;;3.05;;
34657;SDS011;20865;43.312;27.152;2022-08-05T13:35:17;3.92;;;3.10;;
34657;SDS011;20865;43.312;27.152;2022-08-05T13:37:46;6.78;;;2.80;;
34657;SDS011;20865;43.312;27.152;2022-08-05T13:40:14;3.25;;;2.87;;
34657;SDS011;20865;43.312;27.152;2022-08-05T13:42:43;44.08;;;4.37;;
34657;SDS011;20865;43.312;27.152;2022-08-05T13:45:13;5.87;;;3.30;;
34657;SDS011;20865;43.312;27.152;2022-08-05T13:47:40;3.45;;;3.15;;
34657;SDS011;20865;43.312;27.152;2022-08-05T13:50:08;3.67;;;2.90;;
34657;SDS011;20865;43.312;27.152;2022-08-05T13:52:35;9.75;;;2.83;;
34657;SDS011;20865;43.312;27.152;2022-08-05T13:55:03;9.18;;;3.20;;
34657;SDS011;20865;43.312;27.152;2022-08-05T13:57:31;5.92;;;3.42;;
34657;SDS011;20865;43.312;27.152;2022-08-05T13:59:59;8.88;;;3.42;;
34657;SDS011;20865;43.312;27.152;2022-08-05T14:02:26;25.72;;;4.50;;
34657;SDS011;20865;43.312;27.152;2022-08-05T14:04:54;8.75;;;3.37;;
34657;SDS011;20865;43.312;27.152;2022-08-05T14:07:39;6.25;;;3.50;;
34657;SDS011;20865;43.312;27.152;2022-08-05T14:10:13;57.30;;;5.92;;
34657;SDS011;20865;43.312;27.152;2022-08-05T14:12:42;29.07;;;4.58;;
34657;SDS011;20865;43.312;27.152;2022-08-05T14:15:11;9.93;;;3.90;;
34657;SDS011;20865;43.312;27.152;2022-08-05T14:17:39;7.20;;;4.28;;
34657;SDS011;20865;43.312;27.152;2022-08-05T14:20:07;8.03;;;4.72;;
34657;SDS011;20865;43.312;27.152;2022-08-05T14:22:38;11.25;;;4.10;;
34657;SDS011;20865;43.312;27.152;2022-08-05T14:25:08;14.38;;;4.08;;
34657;SDS011;20865;43.312;27.152;2022-08-05T14:27:36;9.30;;;3.72;;
34657;SDS011;20865;43.312;27.152;2022-08-05T14:30:04;3.87;;;3.47;;
34657;SDS011;20865;43.312;27.152;2022-08-05T14:32:32;5.17;;;2.83;;
34657;SDS011;20865;43.312;27.152;2022-08-05T14:35:02;15.53;;;2.92;;
34657;SDS011;20865;43.312;27.152;2022-08-05T14:37:30;9.98;;;2.92;;
34657;SDS011;20865;43.312;27.152;2022-08-05T14:39:58;4.12;;;3.00;;
34657;SDS011;20865;43.312;27.152;2022-08-05T14:42:25;3.80;;;3.05;;
34657;SDS011;20865;43.312;27.152;2022-08-05T14:44:53;4.95;;;3.50;;
34657;SDS011;20865;43.312;27.152;2022-08-05T14:47:21;4.53;;;3.17;;
34657;SDS011;20865;43.312;27.152;2022-08-05T14:49:49;7.08;;;3.00;;
34657;SDS011;20865;43.312;27.152;2022-08-05T14:52:16;6.55;;;3.22;;
34657;SDS011;20865;43.312;27.152;2022-08-05T14:54:45;7.22;;;3.35;;
34657;SDS011;20865;43.312;27.152;2022-08-05T14:57:12;8.95;;;3.60;;
34657;SDS011;20865;43.312;27.152;2022-08-05T14:59:40;8.15;;;3.60;;
34657;SDS011;20865;43.312;27.152;2022-08-05T15:02:07;11.60;;;4.42;;
34657;SDS011;20865;43.312;27.152;2022-08-05T15:04:35;3.47;;;3.17;;
34657;SDS011;20865;43.312;27.152;2022-08-05T15:07:03;20.37;;;3.77;;
34657;SDS011;20865;43.312;27.152;2022-08-05T15:09:30;27.95;;;4.12;;